Kodiak, AK

4:40 PM AKDT on March 26, 2015 (GMT -0800)
Seldovia | | Change Station
CLOSE
Current Station
Airport
Location: Seldovia,
Elevation: 30 ft
Nearby Weather Stations

Elev 30 ft 59.44 °N, 151.70 °W | Updated 30 minutes ago

Overcast
Overcast
45 °F
Feels Like 44 °F
N
4
Wind Variable Wind from Variable

Today
High -- | Low -- °F
--% Chance of Precip.
Yesterday
High -- | Low -- °F
Precip. -- in
7:54 AM 8:37 PM
Waxing Crescent, 47% visible
Pressure 29.26 in
Visibility 10.0 miles
Clouds Scattered Clouds 1700 ft
Mostly Cloudy 2400 ft
Overcast 3200 ft
Windchill 44 °F
Dew Point 42 °F
Humidity 90%
Rainfall 0.10 in
Snow Depth Not available.
UV 1 out of 12
Pollen Not available.
Air Quality Not available.
Flu Activity Not available.
SPECI PASO 270010Z AUTO VRB03KT 10SM SCT017 BKN024 OVC032 07/06 A2926 RMK AO2 RAE05 P0000 T00720056 TSNO $

More Conditions Fewer Conditions

Pressure 29.26 in
Visibility 10.0 miles
Clouds Scattered Clouds 1700 ft
Mostly Cloudy 2400 ft
Overcast 3200 ft
Windchill 44 °F
Dew Point 42 °F
Humidity 90%
Rainfall 0.10 in
Snow Depth Not available.
UV 1 out of 12
Pollen Not available.
Air Quality Not available.
Flu Activity Not available.
SPECI PASO 270010Z AUTO VRB03KT 10SM SCT017 BKN024 OVC032 07/06 A2926 RMK AO2 RAE05 P0000 T00720056 TSNO $

More Conditions Fewer Conditions

10-Day Weather Forecast

Almanac

Astronomy

Mar. 26, 2015 Rise Set
Actual Time
Civil Twilight
Nautical Twilight
Astronomical Twilight
Moon
Length of Visible Light
Length of Day
Tomorrow will be .
, % of the Moon is Illuminated

Today's Extremes

State Highs State Lows

Community

WunderPhotos

Upload Photos

1,808,663 photos uploaded!

WunderBlogs® & News

Nearby

Air Quality

  Air Quality AQ Index Pollutant
Not available.

Snow Depth

Station Depth Elevation

Earthquake Activity

City Distance Mag. Time & Date
Minimum magnitude displayed is 2.5.

Coastal Water Temperatures

Place Temperature

Stations

Nearby Weather Stations

Station Location Temp. Windchill Dew Point Humidity Wind Precip. Elev Updated Type